Terminal Aerodrome Forecast
Issued by NWS

Home | Current Version | Previous Version | Text Only | Print | Product List | Glossary On
Versions: 1 2 3 4 5 6 7 8 9 10 11 12 13 14 15 16 17 18 19 20 21 22 23 24 25 26 27 28 29
638
FTUS43 KDLH 301230 AAA
TAFHIB
TAF AMD
KHIB 301230Z 3013/3112 00000KT P6SM SKC
     FM301400 27006KT P6SM SCT070
     FM301900 24008KT P6SM VCTS SCT035CB BKN060
     FM310000 16006KT P6SM VCSH OVC070
     FM310900 09011G20KT P6SM VCTS SCT015CB BKN035=

USA.gov is the U.S. government's official web portal to all federal, state and local government web resources and services.